Time;durP1;ratioP1;P1;durP2;ratioP2;P2;SDS_P1;SDS_P2;PMS_P1;PMS_P2;Temp;Humidity;BMP_temperature;BMP_pressure;BME280_temperature;BME280_humidity;BME280_pressure;Samples;Min_cycle;Max_cycle;Signal;HPM_P1;HPM_P2
2021/11/26 10:14:38;;;;;;;;;;;;;;;;;;171295;28;1394;-53
2021/11/26 10:14:44;;;;;;;;;;;;;;;;;;170555;28;1701;-54
2021/11/26 10:14:49;;;;;;;;;;;;;;;;;;171383;28;4564;-52
2021/11/26 10:14:56;;;;;;;;;;;;;;;;;;171807;28;2012;-52
2021/11/26 10:15:02;;;;;;;;;;;;;;;;;;172063;28;1057;-55
2021/11/26 10:15:07;;;;;;;;;;;;;;;;;;172149;28;1158;-53
2021/11/26 10:15:15;;;;;;;;;;;;;;;;;;172173;28;864;-53
2021/11/26 10:15:53;;;;;;;;;;;;;;;;;;172200;28;1166;-54
2021/11/26 10:16:07;;;;;;;;;;;;;;;;;;170069;29;892;-55
2021/11/26 10:16:12;;;;;;;;;;;;;;;;;;169996;29;1226;-53
2021/11/26 10:16:18;;;;;;;;;;;;;;;;;;170527;29;1174;-55
2021/11/26 10:16:23;;;;;;;;;;;;;;;;;;171060;28;994;-53
2021/11/26 10:16:28;;;;;;;;;;;;;;;;;;171699;28;1193;-54
2021/11/26 10:16:41;;;;;;;;;;;;;;;;;;172273;28;984;-54
2021/11/26 10:16:50;;;;;;;;;;;;;;;;;;171548;28;864;-54
2021/11/26 10:17:15;;;;;;;;;;;;;;;;;;172202;28;829;-54
2021/11/26 10:17:22;;;;;;;;;;;;;;;;;;171516;28;877;-54
2021/11/26 10:17:27;;;;;;;;;;;;;;;;;;171782;28;1170;-53
2021/11/26 10:17:32;;;;;;;;;;;;;;;;;;172198;28;963;-54
2021/11/26 10:17:38;;;;;;;;;;;;;;;;;;172159;28;1095;-55
2021/11/26 10:17:43;;;;;;;;;;;;;;;;;;172206;28;857;-53
2021/11/26 10:17:48;;;;;;;;;;;;;;;;;;172152;28;1040;-55
2021/11/26 10:18:02;;;;;;;;;;;;;;;;;;172100;28;1185;-54
2021/11/26 10:18:09;;;;;;;;;;;;;;;;;;171594;28;817;-54
2021/11/26 10:18:16;;;;;;;;;;;;;;;;;;171754;28;1099;-53
2021/11/26 10:18:22;;;;;;;;;;;;;;;;;;172278;28;854;-54
2021/11/26 10:18:28;;;;;;;;;;;;;;;;;;172128;28;1150;-53
2021/11/26 10:18:34;;;;;;;;;;;;;;;;;;172221;28;809;-54
2021/11/26 10:18:44;;;;;;;;;;;;;;;;;;172197;28;1166;-55
2021/11/26 10:18:50;;;;;;;;;;;;;;;;;;171718;28;4451;-53
2021/11/26 10:18:55;;;;;;;;;;;;;;;;;;172146;28;864;-53
2021/11/26 10:19:01;;;;;;;;;;;;;;;;;;172185;28;1177;-54
2021/11/26 10:19:06;;;;;;;;;;;;;;;;;;172226;28;1007;-53
2021/11/26 10:19:11;;;;;;;;;;;;;;;;;;172257;28;881;-54
2021/11/26 10:19:16;;;;;;;;;;;;;;;;;;171548;28;809;-54
2021/11/26 10:19:30;;;;;;;;;;;;;;;;;;171615;28;846;-54
2021/11/26 10:19:37;;;;;;;;;;;;;;;;;;171604;28;1075;-54
2021/11/26 10:19:46;;;;;;;;;;;;;;;;;;172193;28;916;-54
2021/11/26 10:19:51;;;;;;;;;;;;;;;;;;172132;28;1342;-53
2021/11/26 10:19:57;;;;;;;;;;;;;;;;;;172218;28;798;-54
2021/11/26 10:20:11;;;;;;;;;;;;;;;;;;172154;28;1177;-53
2021/11/26 10:20:17;;;;;;;;;;;;;;;;;;171533;28;964;-54
2021/11/26 10:20:22;;;;;;;;;;;;;;;;;;171575;28;1147;-54
2021/11/26 10:20:27;;;;;;;;;;;;;;;;;;172243;28;893;-53
2021/11/26 10:20:32;;;;;;;;;;;;;;;;;;172201;28;825;-54
2021/11/26 10:20:38;;;;;;;;;;;;;;;;;;172191;28;1281;-52
2021/11/26 10:20:53;;;;;;;;;;;;;;;;;;172202;28;845;-54
2021/11/26 10:21:01;;;;;;;;;;;;;;;;;;172081;28;1022;-54
2021/11/26 10:21:09;;;;;;;;;;;;;;;;;;172127;28;887;-53
2021/11/26 10:21:14;;;;;;;;;;;;;;;;;;171783;28;1746;-54
2021/11/26 10:21:19;;;;;;;;;;;;;;;;;;172205;28;877;-54
2021/11/26 10:21:25;;;;;;;;;;;;;;;;;;171982;28;1654;-54
2021/11/26 10:21:30;;;;;;;;;;;;;;;;;;172229;28;872;-54
2021/11/26 10:21:36;;;;;;;;;;;;;;;;;;172098;28;1170;-54
2021/11/26 10:21:41;;;;;;;;;;;;;;;;;;172168;28;1043;-53
2021/11/26 10:21:46;;;;;;;;;;;;;;;;;;172008;28;1236;-55
2021/11/26 10:21:51;;;;;;;;;;;;;;;;;;172084;28;971;-53
2021/11/26 10:21:56;;;;;;;;;;;;;;;;;;172069;28;1206;-53
2021/11/26 10:22:20;;;;;;;;;;;;;;;;;;172200;28;889;-53
2021/11/26 10:22:27;;;;;;;;;;;;;;;;;;172170;28;813;-53
2021/11/26 10:22:33;;;;;;;;;;;;;;;;;;172085;28;1169;-54
2021/11/26 10:22:40;;;;;;;;;;;;;;;;;;172198;28;869;-54
2021/11/26 10:22:45;;;;;;;;;;;;;;;;;;172107;28;1230;-54
2021/11/26 10:22:50;;;;;;;;;;;;;;;;;;171663;28;4545;-55
2021/11/26 10:22:55;;;;;;;;;;;;;;;;;;172091;28;1161;-53
2021/11/26 10:23:03;;;;;;;;;;;;;;;;;;172086;28;797;-54
2021/11/26 10:23:18;;;;;;;;;;;;;;;;;;172182;28;1155;-53
2021/11/26 10:23:24;;;;;;;;;;;;;;;;;;172107;28;1229;-54
2021/11/26 10:23:32;;;;;;;;;;;;;;;;;;172194;28;898;-54
2021/11/26 10:23:37;;;;;;;;;;;;;;;;;;171611;28;1197;-53
2021/11/26 10:23:44;;;;;;;;;;;;;;;;;;171530;28;1151;-53
2021/11/26 10:23:53;;;;;;;;;;;;;;;;;;172094;28;854;-54
2021/11/26 10:23:58;;;;;;;;;;;;;;;;;;172207;28;1134;-55
2021/11/26 10:24:08;;;;;;;;;;;;;;;;;;172157;28;1181;-54
2021/11/26 10:24:16;;;;;;;;;;;;;;;;;;171491;28;873;-53
2021/11/26 10:24:21;;;;;;;;;;;;;;;;;;172031;28;1162;-54
2021/11/26 10:24:27;;;;;;;;;;;;;;;;;;172279;28;857;-53
2021/11/26 10:24:32;;;;;;;;;;;;;;;;;;170614;28;1842;-53
2021/11/26 10:24:37;;;;;;;;;;;;;;;;;;172065;28;1011;-54
2021/11/26 10:24:42;;;;;;;;;;;;;;;;;;172131;28;1185;-54
2021/11/26 10:24:58;;;;;;;;;;;;;;;;;;172169;28;845;-53
2021/11/26 10:25:15;;;;;;;;;;;;;;;;;;172017;28;1197;-53
2021/11/26 10:25:21;;;;;;;;;;;;;;;;;;172096;28;1087;-55
2021/11/26 10:25:26;;;;;;;;;;;;;;;;;;172225;28;983;-54
2021/11/26 10:25:31;;;;;;;;;;;;;;;;;;172132;28;1228;-54
2021/11/26 10:25:36;;;;;;;;;;;;;;;;;;172281;28;1011;-53
2021/11/26 10:25:41;;;;;;;;;;;;;;;;;;172189;28;1212;-53
2021/11/26 10:25:46;;;;;;;;;;;;;;;;;;172130;28;1011;-55
2021/11/26 10:25:52;;;;;;;;;;;;;;;;;;172115;28;1161;-54
2021/11/26 10:26:20;;;;;;;;;;;;;;;;;;172197;28;837;-53
2021/11/26 10:26:26;;;;;;;;;;;;;;;;;;169968;29;1973;-54
2021/11/26 10:26:33;;;;;;;;;;;;;;;;;;170033;29;1207;-54
2021/11/26 10:26:39;;;;;;;;;;;;;;;;;;170041;29;920;-55
2021/11/26 10:26:49;;;;;;;;;;;;;;;;;;171760;28;4552;-55
2021/11/26 10:26:54;;;;;;;;;;;;;;;;;;172036;28;1116;-53
2021/11/26 10:27:00;;;;;;;;;;;;;;;;;;172072;28;1141;-53
2021/11/26 10:27:05;;;;;;;;;;;;;;;;;;172025;28;1155;-53
2021/11/26 10:27:10;;;;;;;;;;;;;;;;;;172121;28;964;-54
2021/11/26 10:27:15;;;;;;;;;;;;;;;;;;171946;28;1114;-53
2021/11/26 10:27:20;;;;;;;;;;;;;;;;;;172114;28;789;-55
2021/11/26 10:27:38;;;;;;;;;;;;;;;;;;171439;28;904;-54
2021/11/26 10:27:43;;;;;;;;;;;;;;;;;;171480;28;798;-54
2021/11/26 10:27:55;;;;;;;;;;;;;;;;;;171291;28;871;-54
2021/11/26 10:28:02;;;;;;;;;;;;;;;;;;170868;28;1048;-53
2021/11/26 10:28:07;;;;;;;;;;;;;;;;;;171411;28;837;-54
2021/11/26 10:28:12;;;;;;;;;;;;;;;;;;171482;28;1050;-55
2021/11/26 10:28:18;;;;;;;;;;;;;;;;;;171500;28;1087;-54
2021/11/26 10:28:23;;;;;;;;;;;;;;;;;;171538;28;829;-54
2021/11/26 10:28:36;;;;;;;;;;;;;;;;;;171470;28;1160;-53
2021/11/26 10:28:42;;;;;;;;;;;;;;;;;;171343;28;1150;-53
2021/11/26 10:28:50;;;;;;;;;;;;;;;;;;171344;28;829;-55
2021/11/26 10:28:59;;;;;;;;;;;;;;;;;;171420;28;891;-54
2021/11/26 10:29:04;;;;;;;;;;;;;;;;;;171944;28;1159;-54
2021/11/26 10:29:09;;;;;;;;;;;;;;;;;;172055;28;850;-53
2021/11/26 10:29:15;;;;;;;;;;;;;;;;;;171958;28;1087;-54
2021/11/26 10:29:33;;;;;;;;;;;;;;;;;;172101;28;849;-55
2021/11/26 10:29:39;;;;;;;;;;;;;;;;;;171483;28;1566;-53
2021/11/26 10:29:44;;;;;;;;;;;;;;;;;;171504;28;798;-54
2021/11/26 10:29:49;;;;;;;;;;;;;;;;;;171874;28;968;-53
2021/11/26 10:29:54;;;;;;;;;;;;;;;;;;172108;28;932;-54
2021/11/26 10:30:18;;;;;;;;;;;;;;;;;;172132;28;1164;-53
2021/11/26 10:30:25;;;;;;;;;;;;;;;;;;171628;28;1162;-53
2021/11/26 10:30:34;;;;;;;;;;;;;;;;;;171829;28;1527;-53
2021/11/26 10:30:40;;;;;;;;;;;;;;;;;;172151;28;861;-54
2021/11/26 10:30:46;;;;;;;;;;;;;;;;;;171821;28;4594;-54
2021/11/26 10:30:53;;;;;;;;;;;;;;;;;;171403;28;861;-54
2021/11/26 10:30:58;;;;;;;;;;;;;;;;;;171535;28;1063;-54
2021/11/26 10:31:03;;;;;;;;;;;;;;;;;;172146;28;1126;-53
2021/11/26 10:31:16;;;;;;;;;;;;;;;;;;172177;28;814;-55
2021/11/26 10:31:35;;;;;;;;;;;;;;;;;;171432;28;1632;-52
2021/11/26 10:31:40;;;;;;;;;;;;;;;;;;172203;28;901;-53
2021/11/26 10:31:45;;;;;;;;;;;;;;;;;;171340;28;1558;-54
2021/11/26 10:32:00;;;;;;;;;;;;;;;;;;171907;28;706;-53
2021/11/26 10:32:09;;;;;;;;;;;;;;;;;;172140;28;909;-54
2021/11/26 10:32:15;;;;;;;;;;;;;;;;;;171476;28;877;-55
2021/11/26 10:32:20;;;;;;;;;;;;;;;;;;171581;28;897;-53
2021/11/26 10:32:25;;;;;;;;;;;;;;;;;;172178;28;1261;-54
2021/11/26 10:32:30;;;;;;;;;;;;;;;;;;172243;28;913;-53
2021/11/26 10:32:35;;;;;;;;;;;;;;;;;;172153;28;1154;-54
2021/11/26 10:32:53;;;;;;;;;;;;;;;;;;172235;28;801;-55
2021/11/26 10:33:10;;;;;;;;;;;;;;;;;;171481;28;1142;-54
2021/11/26 10:33:22;;;;;;;;;;;;;;;;;;172075;28;1082;-54
2021/11/26 10:33:28;;;;;;;;;;;;;;;;;;172075;28;667;-54
2021/11/26 10:33:33;;;;;;;;;;;;;;;;;;172052;28;1331;-55
2021/11/26 10:33:38;;;;;;;;;;;;;;;;;;172022;28;1273;-53
2021/11/26 10:33:43;;;;;;;;;;;;;;;;;;171977;28;1222;-53
2021/11/26 10:33:49;;;;;;;;;;;;;;;;;;171272;28;888;-55
2021/11/26 10:33:55;;;;;;;;;;;;;;;;;;171359;28;1357;-53
2021/11/26 10:34:00;;;;;;;;;;;;;;;;;;172017;28;1312;-51
2021/11/26 10:34:06;;;;;;;;;;;;;;;;;;171872;28;1715;-54
2021/11/26 10:34:11;;;;;;;;;;;;;;;;;;171461;28;1683;-54
2021/11/26 10:34:16;;;;;;;;;;;;;;;;;;171533;28;1679;-54
2021/11/26 10:34:24;;;;;;;;;;;;;;;;;;171980;28;1002;-54
2021/11/26 10:34:29;;;;;;;;;;;;;;;;;;172061;28;813;-54
2021/11/26 10:34:35;;;;;;;;;;;;;;;;;;171697;28;1568;-52
2021/11/26 10:34:41;;;;;;;;;;;;;;;;;;171533;28;1472;-53
2021/11/26 10:34:49;;;;;;;;;;;;;;;;;;171507;28;4340;-54
2021/11/26 10:34:54;;;;;;;;;;;;;;;;;;171465;28;1139;-53
2021/11/26 10:34:59;;;;;;;;;;;;;;;;;;172075;28;1273;-54
2021/11/26 10:35:05;;;;;;;;;;;;;;;;;;172191;28;959;-53
2021/11/26 10:35:10;;;;;;;;;;;;;;;;;;172133;28;782;-54
2021/11/26 10:35:15;;;;;;;;;;;;;;;;;;172065;28;1161;-54
2021/11/26 10:35:20;;;;;;;;;;;;;;;;;;171608;28;1159;-53
2021/11/26 10:35:30;;;;;;;;;;;;;;;;;;171447;28;833;-54
2021/11/26 10:35:54;;;;;;;;;;;;;;;;;;172073;28;1288;-55
2021/11/26 10:36:00;;;;;;;;;;;;;;;;;;171456;28;1214;-55
2021/11/26 10:36:06;;;;;;;;;;;;;;;;;;171945;28;1122;-54
2021/11/26 10:36:12;;;;;;;;;;;;;;;;;;172134;28;817;-53
2021/11/26 10:36:17;;;;;;;;;;;;;;;;;;172026;28;1317;-54
2021/11/26 10:36:22;;;;;;;;;;;;;;;;;;172140;28;1004;-54
2021/11/26 10:36:28;;;;;;;;;;;;;;;;;;172050;28;1174;-54
2021/11/26 10:36:46;;;;;;;;;;;;;;;;;;172070;28;809;-55
2021/11/26 10:36:51;;;;;;;;;;;;;;;;;;171382;28;1190;-54
2021/11/26 10:36:57;;;;;;;;;;;;;;;;;;172196;28;857;-53
2021/11/26 10:37:02;;;;;;;;;;;;;;;;;;172065;28;1055;-54
2021/11/26 10:37:17;;;;;;;;;;;;;;;;;;172130;28;1218;-54
2021/11/26 10:37:23;;;;;;;;;;;;;;;;;;171531;28;806;-54
2021/11/26 10:37:28;;;;;;;;;;;;;;;;;;171669;28;1171;-54
2021/11/26 10:37:33;;;;;;;;;;;;;;;;;;172198;28;880;-54
2021/11/26 10:37:39;;;;;;;;;;;;;;;;;;172179;28;1166;-53
2021/11/26 10:37:54;;;;;;;;;;;;;;;;;;172145;28;805;-55
2021/11/26 10:38:00;;;;;;;;;;;;;;;;;;171577;28;817;-55
2021/11/26 10:38:12;;;;;;;;;;;;;;;;;;171920;28;1175;-54
2021/11/26 10:38:21;;;;;;;;;;;;;;;;;;172138;28;1086;-52
2021/11/26 10:38:27;;;;;;;;;;;;;;;;;;172207;28;1154;-55
2021/11/26 10:38:33;;;;;;;;;;;;;;;;;;172206;28;834;-54
2021/11/26 10:38:38;;;;;;;;;;;;;;;;;;172189;28;1162;-53
2021/11/26 10:38:44;;;;;;;;;;;;;;;;;;172191;28;900;-54
2021/11/26 10:38:49;;;;;;;;;;;;;;;;;;171690;28;4444;-55
2021/11/26 10:38:54;;;;;;;;;;;;;;;;;;172066;28;872;-54
2021/11/26 10:39:08;;;;;;;;;;;;;;;;;;172146;28;1015;-55
2021/11/26 10:39:16;;;;;;;;;;;;;;;;;;171655;28;1193;-53
2021/11/26 10:39:22;;;;;;;;;;;;;;;;;;172166;28;750;-55
2021/11/26 10:39:27;;;;;;;;;;;;;;;;;;172187;28;1427;-54
2021/11/26 10:39:33;;;;;;;;;;;;;;;;;;172192;28;696;-54
2021/11/26 10:39:38;;;;;;;;;;;;;;;;;;172145;28;1206;-53
2021/11/26 10:39:44;;;;;;;;;;;;;;;;;;172160;28;891;-54
2021/11/26 10:39:49;;;;;;;;;;;;;;;;;;172109;28;1149;-53
2021/11/26 10:39:54;;;;;;;;;;;;;;;;;;172021;28;948;-54
2021/11/26 10:40:00;;;;;;;;;;;;;;;;;;172103;28;868;-54
2021/11/26 10:40:18;;;;;;;;;;;;;;;;;;171476;28;1338;-54
2021/11/26 10:40:26;;;;;;;;;;;;;;;;;;171606;28;1130;-54
2021/11/26 10:40:33;;;;;;;;;;;;;;;;;;172200;28;920;-54
2021/11/26 10:40:39;;;;;;;;;;;;;;;;;;172180;28;1166;-55
2021/11/26 10:40:47;;;;;;;;;;;;;;;;;;171705;28;1702;-53
2021/11/26 10:40:53;;;;;;;;;;;;;;;;;;171464;28;1785;-53
2021/11/26 10:40:59;;;;;;;;;;;;;;;;;;172112;28;791;-53
2021/11/26 10:41:05;;;;;;;;;;;;;;;;;;172103;28;839;-54
2021/11/26 10:41:13;;;;;;;;;;;;;;;;;;171162;28;1647;-53
2021/11/26 10:41:26;;;;;;;;;;;;;;;;;;171415;28;870;-54
2021/11/26 10:41:35;;;;;;;;;;;;;;;;;;172154;28;1062;-53
2021/11/26 10:41:41;;;;;;;;;;;;;;;;;;171421;28;897;-54
2021/11/26 10:41:52;;;;;;;;;;;;;;;;;;171403;28;1112;-53
2021/11/26 10:41:58;;;;;;;;;;;;;;;;;;171429;28;896;-54
2021/11/26 10:42:04;;;;;;;;;;;;;;;;;;171492;28;817;-54
2021/11/26 10:42:09;;;;;;;;;;;;;;;;;;171508;28;805;-53
2021/11/26 10:42:23;;;;;;;;;;;;;;;;;;170702;29;948;-54
2021/11/26 10:42:29;;;;;;;;;;;;;;;;;;171508;28;818;-54
2021/11/26 10:42:34;;;;;;;;;;;;;;;;;;171378;28;1197;-53
2021/11/26 10:42:40;;;;;;;;;;;;;;;;;;171470;28;1044;-54
2021/11/26 10:42:45;;;;;;;;;;;;;;;;;;171908;28;1325;-55
2021/11/26 10:42:50;;;;;;;;;;;;;;;;;;171478;28;9794;-54
2021/11/26 10:42:56;;;;;;;;;;;;;;;;;;172085;28;849;-53
2021/11/26 10:43:02;;;;;;;;;;;;;;;;;;172071;28;1181;-53
2021/11/26 10:43:12;;;;;;;;;;;;;;;;;;172160;28;880;-54
2021/11/26 10:43:28;;;;;;;;;;;;;;;;;;172055;28;888;-55
2021/11/26 10:43:49;;;;;;;;;;;;;;;;;;171734;28;1159;-55
2021/11/26 10:43:59;;;;;;;;;;;;;;;;;;172098;28;885;-53
2021/11/26 10:44:08;;;;;;;;;;;;;;;;;;172101;28;876;-54
2021/11/26 10:44:15;;;;;;;;;;;;;;;;;;171367;28;833;-54
2021/11/26 10:44:27;;;;;;;;;;;;;;;;;;171598;28;1151;-54
2021/11/26 10:44:46;;;;;;;;;;;;;;;;;;172053;28;595;-53
2021/11/26 10:45:03;;;;;;;;;;;;;;;;;;172114;28;928;-55
2021/11/26 10:45:17;;;;;;;;;;;;;;;;;;171404;28;1598;-53
2021/11/26 10:45:29;;;;;;;;;;;;;;;;;;171514;28;932;-54
2021/11/26 10:46:58;;;;;;;;;;;;;;;;;;171575;28;892;-53
2021/11/26 10:47:21;;;;;;;;;;;;;;;;;;172695;28;1130;-54
2021/11/26 10:48:05;;;;;;;;;;;;;;;;;;172645;28;770;-54
2021/11/26 10:49:01;;;;;;;;;;;;;;;;;;172375;28;1047;-54
2021/11/26 10:50:40;;;;;;;;;;;;;;;;;;172724;28;774;-54
2021/11/26 10:50:57;;;;;;;;;;;;;;;;;;171902;28;4263;-54
2021/11/26 10:51:39;;;;;;;;;;;;;;;;;;172026;28;912;-54
2021/11/26 10:52:07;;;;;;;;;;;;;;;;;;172064;28;1012;-54
2021/11/26 10:52:47;;;;;;;;;;;;;;;;;;172856;28;1100;-54
2021/11/26 10:57:11;;;;;;;;;;;;;;;;;;173144;28;1202;-54
2021/11/26 10:57:38;;;;;;;;;;;;;;;;;;172273;28;872;-54
2021/11/26 10:57:59;;;;;;;;;;;;;;;;;;172149;28;971;-54
2021/11/26 10:58:49;;;;;;;;;;;;;;;;;;172199;28;888;-55
2021/11/26 10:58:59;;;;;;;;;;;;;;;;;;171683;28;4395;-54
2021/11/26 10:59:05;;;;;;;;;;;;;;;;;;172036;28;1039;-55
2021/11/26 10:59:10;;;;;;;;;;;;;;;;;;172115;28;866;-55
2021/11/26 10:59:28;;;;;;;;;;;;;;;;;;172018;28;1095;-54
2021/11/26 10:59:33;;;;;;;;;;;;;;;;;;172100;28;975;-54
2021/11/26 10:59:39;;;;;;;;;;;;;;;;;;171751;28;1480;-53
2021/11/26 10:59:44;;;;;;;;;;;;;;;;;;171944;28;876;-53
2021/11/26 10:59:59;;;;;;;;;;;;;;;;;;172026;28;1039;-54
2021/11/26 11:00:08;;;;;;;;;;;;;;;;;;171973;28;1103;-53
2021/11/26 11:00:17;;;;;;;;;;;;;;;;;;172080;28;1158;-53
2021/11/26 11:00:23;;;;;;;;;;;;;;;;;;172198;28;813;-53
2021/11/26 11:00:28;;;;;;;;;;;;;;;;;;172046;28;1154;-54
2021/11/26 11:00:33;;;;;;;;;;;;;;;;;;172135;28;900;-54
2021/11/26 11:00:38;;;;;;;;;;;;;;;;;;172101;28;1212;-53
2021/11/26 11:00:43;;;;;;;;;;;;;;;;;;172158;28;805;-54
2021/11/26 11:00:48;;;;;;;;;;;;;;;;;;171983;28;1185;-55
2021/11/26 11:01:03;;;;;;;;;;;;;;;;;;171906;28;1003;-54
2021/11/26 11:01:10;;;;;;;;;;;;;;;;;;171408;28;852;-54
2021/11/26 11:01:15;;;;;;;;;;;;;;;;;;171055;28;1599;-53
2021/11/26 11:01:21;;;;;;;;;;;;;;;;;;171562;28;1730;-54
2021/11/26 11:01:26;;;;;;;;;;;;;;;;;;171776;28;1019;-54
2021/11/26 11:01:43;;;;;;;;;;;;;;;;;;172041;28;829;-54
2021/11/26 11:01:49;;;;;;;;;;;;;;;;;;171565;28;1116;-54
2021/11/26 11:01:54;;;;;;;;;;;;;;;;;;172046;28;1020;-54
2021/11/26 11:02:00;;;;;;;;;;;;;;;;;;172047;28;1146;-54
2021/11/26 11:02:06;;;;;;;;;;;;;;;;;;172074;28;902;-53
2021/11/26 11:02:22;;;;;;;;;;;;;;;;;;172037;28;1095;-54
2021/11/26 11:02:28;;;;;;;;;;;;;;;;;;172097;28;1114;-54
2021/11/26 11:02:36;;;;;;;;;;;;;;;;;;172075;28;1142;-55
2021/11/26 11:02:42;;;;;;;;;;;;;;;;;;171995;28;861;-54
2021/11/26 11:02:48;;;;;;;;;;;;;;;;;;171809;28;4480;-52
2021/11/26 11:02:57;;;;;;;;;;;;;;;;;;172134;28;825;-54
2021/11/26 11:03:03;;;;;;;;;;;;;;;;;;172129;28;1014;-53
2021/11/26 11:03:08;;;;;;;;;;;;;;;;;;172186;28;984;-53
2021/11/26 11:03:13;;;;;;;;;;;;;;;;;;172092;28;1078;-53
2021/11/26 11:03:22;;;;;;;;;;;;;;;;;;172105;28;837;-52
2021/11/26 11:03:27;;;;;;;;;;;;;;;;;;171512;28;817;-54
2021/11/26 11:03:32;;;;;;;;;;;;;;;;;;171523;28;1170;-53
2021/11/26 11:03:37;;;;;;;;;;;;;;;;;;172192;28;1000;-54
2021/11/26 11:03:44;;;;;;;;;;;;;;;;;;172207;28;793;-54
2021/11/26 11:03:51;;;;;;;;;;;;;;;;;;172113;28;944;-52
2021/11/26 11:04:11;;;;;;;;;;;;;;;;;;172053;28;1158;-52
2021/11/26 11:04:17;;;;;;;;;;;;;;;;;;172163;28;1264;-54
2021/11/26 11:04:23;;;;;;;;;;;;;;;;;;172205;28;1170;-52
2021/11/26 11:04:28;;;;;;;;;;;;;;;;;;172252;28;944;-54
2021/11/26 11:04:34;;;;;;;;;;;;;;;;;;171985;28;1126;-53
2021/11/26 11:04:39;;;;;;;;;;;;;;;;;;172066;28;1016;-54
2021/11/26 11:04:47;;;;;;;;;;;;;;;;;;171930;28;1123;-52
2021/11/26 11:04:52;;;;;;;;;;;;;;;;;;172134;28;1019;-54
2021/11/26 11:04:57;;;;;;;;;;;;;;;;;;172027;28;1099;-53
2021/11/26 11:05:03;;;;;;;;;;;;;;;;;;172023;28;1071;-53
2021/11/26 11:05:20;;;;;;;;;;;;;;;;;;172000;28;1127;-54
2021/11/26 11:05:29;;;;;;;;;;;;;;;;;;171372;28;1070;-54
2021/11/26 11:05:37;;;;;;;;;;;;;;;;;;171965;28;1171;-54
2021/11/26 11:05:43;;;;;;;;;;;;;;;;;;171998;28;1143;-55
2021/11/26 11:05:48;;;;;;;;;;;;;;;;;;172023;28;825;-53
2021/11/26 11:05:53;;;;;;;;;;;;;;;;;;172051;28;956;-54
2021/11/26 11:05:58;;;;;;;;;;;;;;;;;;172003;28;1206;-53
2021/11/26 11:06:14;;;;;;;;;;;;;;;;;;172011;28;1130;-53
2021/11/26 11:06:19;;;;;;;;;;;;;;;;;;171949;28;1270;-53
2021/11/26 11:06:25;;;;;;;;;;;;;;;;;;171989;28;1975;-55
2021/11/26 11:06:30;;;;;;;;;;;;;;;;;;172046;28;1166;-53
2021/11/26 11:06:35;;;;;;;;;;;;;;;;;;172139;28;904;-54
2021/11/26 11:06:40;;;;;;;;;;;;;;;;;;172177;28;1039;-54
2021/11/26 11:07:06;;;;;;;;;;;;;;;;;;172009;28;1343;-52
2021/11/26 11:07:12;;;;;;;;;;;;;;;;;;171605;28;4217;-54
2021/11/26 11:07:18;;;;;;;;;;;;;;;;;;171854;28;1220;-53
2021/11/26 11:07:23;;;;;;;;;;;;;;;;;;172019;28;905;-53
2021/11/26 11:07:38;;;;;;;;;;;;;;;;;;172026;28;1146;-54
2021/11/26 11:07:44;;;;;;;;;;;;;;;;;;171933;28;1214;-55
2021/11/26 11:07:49;;;;;;;;;;;;;;;;;;171944;28;817;-54
2021/11/26 11:07:55;;;;;;;;;;;;;;;;;;171942;28;1260;-55
2021/11/26 11:08:01;;;;;;;;;;;;;;;;;;171981;28;846;-54
2021/11/26 11:08:19;;;;;;;;;;;;;;;;;;171973;28;1087;-54
2021/11/26 11:08:25;;;;;;;;;;;;;;;;;;171360;28;1007;-55
2021/11/26 11:08:30;;;;;;;;;;;;;;;;;;171803;28;1210;-53
2021/11/26 11:08:35;;;;;;;;;;;;;;;;;;172115;28;892;-54
2021/11/26 11:08:41;;;;;;;;;;;;;;;;;;172029;28;1189;-54
2021/11/26 11:08:59;;;;;;;;;;;;;;;;;;171983;28;833;-52
2021/11/26 11:09:06;;;;;;;;;;;;;;;;;;171829;28;1076;-53
2021/11/26 11:09:12;;;;;;;;;;;;;;;;;;172165;28;884;-53
2021/11/26 11:09:17;;;;;;;;;;;;;;;;;;172115;28;1174;-55
2021/11/26 11:09:22;;;;;;;;;;;;;;;;;;172233;28;896;-53
2021/11/26 11:09:37;;;;;;;;;;;;;;;;;;172117;28;1158;-54
2021/11/26 11:09:42;;;;;;;;;;;;;;;;;;172159;28;1328;-53
2021/11/26 11:09:50;;;;;;;;;;;;;;;;;;172097;28;844;-52
2021/11/26 11:09:56;;;;;;;;;;;;;;;;;;171442;28;825;-54
2021/11/26 11:10:01;;;;;;;;;;;;;;;;;;171377;28;1214;-54
2021/11/26 11:10:07;;;;;;;;;;;;;;;;;;171618;28;2189;-53
2021/11/26 11:10:23;;;;;;;;;;;;;;;;;;171982;28;844;-53
2021/11/26 11:10:32;;;;;;;;;;;;;;;;;;171959;28;1158;-53
2021/11/26 11:10:38;;;;;;;;;;;;;;;;;;170976;28;1937;-52
2021/11/26 11:10:43;;;;;;;;;;;;;;;;;;172056;28;700;-53
2021/11/26 11:10:48;;;;;;;;;;;;;;;;;;171500;28;4523;-53
2021/11/26 11:10:53;;;;;;;;;;;;;;;;;;171504;28;1671;-52
2021/11/26 11:11:02;;;;;;;;;;;;;;;;;;171423;28;1707;-53
2021/11/26 11:11:07;;;;;;;;;;;;;;;;;;171493;28;718;-54
2021/11/26 11:11:13;;;;;;;;;;;;;;;;;;171576;28;1234;-53
2021/11/26 11:11:18;;;;;;;;;;;;;;;;;;172097;28;820;-54
2021/11/26 11:11:23;;;;;;;;;;;;;;;;;;172135;28;1194;-54
2021/11/26 11:11:28;;;;;;;;;;;;;;;;;;172099;28;1324;-54
2021/11/26 11:11:34;;;;;;;;;;;;;;;;;;172077;28;781;-54
2021/11/26 11:11:52;;;;;;;;;;;;;;;;;;171976;28;1051;-55
2021/11/26 11:11:57;;;;;;;;;;;;;;;;;;171455;28;967;-55
2021/11/26 11:12:02;;;;;;;;;;;;;;;;;;171836;28;1202;-53
2021/11/26 11:12:07;;;;;;;;;;;;;;;;;;172124;28;944;-54
2021/11/26 11:12:13;;;;;;;;;;;;;;;;;;171763;28;1122;-54
2021/11/26 11:12:18;;;;;;;;;;;;;;;;;;172156;28;916;-53
2021/11/26 11:12:33;;;;;;;;;;;;;;;;;;172026;28;1162;-54
2021/11/26 11:12:38;;;;;;;;;;;;;;;;;;172039;28;1260;-53
2021/11/26 11:12:44;;;;;;;;;;;;;;;;;;172182;28;884;-54
2021/11/26 11:12:49;;;;;;;;;;;;;;;;;;171862;28;1135;-54
2021/11/26 11:12:54;;;;;;;;;;;;;;;;;;172079;28;979;-53
2021/11/26 11:13:06;;;;;;;;;;;;;;;;;;172026;28;1248;-54
2021/11/26 11:13:12;;;;;;;;;;;;;;;;;;172017;28;1110;-54
2021/11/26 11:13:19;;;;;;;;;;;;;;;;;;172018;28;849;-53
2021/11/26 11:13:29;;;;;;;;;;;;;;;;;;172040;28;1217;-53
2021/11/26 11:13:34;;;;;;;;;;;;;;;;;;172040;28;1162;-54
2021/11/26 11:13:39;;;;;;;;;;;;;;;;;;172056;28;931;-53
2021/11/26 11:13:44;;;;;;;;;;;;;;;;;;172096;28;1245;-54
2021/11/26 11:13:50;;;;;;;;;;;;;;;;;;172057;28;893;-53
2021/11/26 11:13:55;;;;;;;;;;;;;;;;;;172105;28;872;-52
2021/11/26 11:14:03;;;;;;;;;;;;;;;;;;171939;28;1421;-53
2021/11/26 11:14:15;;;;;;;;;;;;;;;;;;170119;29;1741;-55
2021/11/26 11:14:22;;;;;;;;;;;;;;;;;;170482;28;929;-54
2021/11/26 11:14:27;;;;;;;;;;;;;;;;;;171485;28;865;-52
2021/11/26 11:14:32;;;;;;;;;;;;;;;;;;170672;28;1579;-53
2021/11/26 11:14:37;;;;;;;;;;;;;;;;;;171383;28;873;-54
2021/11/26 11:14:53;;;;;;;;;;;;;;;;;;170332;29;1675;-52
2021/11/26 11:14:59;;;;;;;;;;;;;;;;;;170408;29;4346;-54
2021/11/26 11:15:05;;;;;;;;;;;;;;;;;;170669;29;1071;-54
2021/11/26 11:15:11;;;;;;;;;;;;;;;;;;170700;29;1156;-54
2021/11/26 11:15:17;;;;;;;;;;;;;;;;;;170780;29;877;-54
2021/11/26 11:15:22;;;;;;;;;;;;;;;;;;170661;29;1116;-54
2021/11/26 11:15:27;;;;;;;;;;;;;;;;;;170764;29;808;-55
2021/11/26 11:15:32;;;;;;;;;;;;;;;;;;170743;29;1131;-54
2021/11/26 11:15:38;;;;;;;;;;;;;;;;;;170775;29;873;-53
2021/11/26 11:15:44;;;;;;;;;;;;;;;;;;170680;29;1164;-54
2021/11/26 11:15:49;;;;;;;;;;;;;;;;;;170659;29;917;-53
2021/11/26 11:15:55;;;;;;;;;;;;;;;;;;170636;29;1175;-54
2021/11/26 11:16:07;;;;;;;;;;;;;;;;;;170697;28;1035;-54
2021/11/26 11:16:12;;;;;;;;;;;;;;;;;;171454;28;817;-53
2021/11/26 11:16:18;;;;;;;;;;;;;;;;;;171310;28;1155;-54
2021/11/26 11:16:23;;;;;;;;;;;;;;;;;;172142;28;908;-53
2021/11/26 11:16:28;;;;;;;;;;;;;;;;;;172130;28;1066;-53
2021/11/26 11:16:33;;;;;;;;;;;;;;;;;;172083;28;1174;-54
2021/11/26 11:16:45;;;;;;;;;;;;;;;;;;171436;28;818;-53
2021/11/26 11:16:51;;;;;;;;;;;;;;;;;;171937;28;1107;-53
2021/11/26 11:16:57;;;;;;;;;;;;;;;;;;171358;28;1198;-52
2021/11/26 11:17:02;;;;;;;;;;;;;;;;;;171409;28;1036;-54
2021/11/26 11:17:07;;;;;;;;;;;;;;;;;;171360;28;1163;-54
2021/11/26 11:17:12;;;;;;;;;;;;;;;;;;171471;28;833;-53
2021/11/26 11:17:19;;;;;;;;;;;;;;;;;;171346;28;1271;-54
2021/11/26 11:17:28;;;;;;;;;;;;;;;;;;171413;28;759;-54
2021/11/26 11:17:33;;;;;;;;;;;;;;;;;;171409;28;1166;-54
2021/11/26 11:17:38;;;;;;;;;;;;;;;;;;171361;28;957;-54
2021/11/26 11:17:46;;;;;;;;;;;;;;;;;;171394;28;1143;-55
2021/11/26 11:17:51;;;;;;;;;;;;;;;;;;171404;28;925;-54
2021/11/26 11:17:57;;;;;;;;;;;;;;;;;;171384;28;1292;-53
2021/11/26 11:18:02;;;;;;;;;;;;;;;;;;171507;28;746;-54
2021/11/26 11:18:08;;;;;;;;;;;;;;;;;;171356;28;1167;-54
2021/11/26 11:18:14;;;;;;;;;;;;;;;;;;171395;28;852;-55
2021/11/26 11:18:19;;;;;;;;;;;;;;;;;;171317;28;1217;-54
2021/11/26 11:18:24;;;;;;;;;;;;;;;;;;171402;28;809;-54
2021/11/26 11:18:29;;;;;;;;;;;;;;;;;;171363;28;1222;-53
2021/11/26 11:18:36;;;;;;;;;;;;;;;;;;171379;28;868;-53
2021/11/26 11:18:42;;;;;;;;;;;;;;;;;;171971;28;1221;-54
2021/11/26 11:18:47;;;;;;;;;;;;;;;;;;171405;28;4425;-54
2021/11/26 11:18:52;;;;;;;;;;;;;;;;;;171869;28;1210;-54
2021/11/26 11:18:57;;;;;;;;;;;;;;;;;;172087;28;889;-54
2021/11/26 11:19:02;;;;;;;;;;;;;;;;;;172039;28;1233;-53
2021/11/26 11:19:07;;;;;;;;;;;;;;;;;;172038;28;1016;-54
2021/11/26 11:19:13;;;;;;;;;;;;;;;;;;171407;28;944;-53
2021/11/26 11:19:18;;;;;;;;;;;;;;;;;;171268;28;1171;-54
2021/11/26 11:19:24;;;;;;;;;;;;;;;;;;171387;28;1051;-54
2021/11/26 11:19:29;;;;;;;;;;;;;;;;;;170825;28;1768;-54
2021/11/26 11:19:34;;;;;;;;;;;;;;;;;;171402;28;887;-53
2021/11/26 11:19:39;;;;;;;;;;;;;;;;;;171361;28;1210;-55
2021/11/26 11:19:44;;;;;;;;;;;;;;;;;;171412;28;916;-54